createdAt,value
2023-04-01T00:01:33.659Z,97036.78
2023-04-01T00:04:02.993Z,97030.69
2023-04-01T00:06:30.741Z,97027.66
2023-04-01T00:08:57.517Z,97026.47
2023-04-01T00:11:24.590Z,97025.63
2023-04-01T00:13:51.346Z,97022.09
2023-04-01T00:16:22.396Z,97017.19
2023-04-01T00:18:50.454Z,97023.78
2023-04-01T00:21:17.990Z,97020.22
2023-04-01T00:23:44.952Z,97025.44
2023-04-01T00:26:13.439Z,97021.41
2023-04-01T00:28:41.101Z,97025.78
2023-04-01T00:31:08.994Z,97029.47
2023-04-01T00:33:36.697Z,97022.72
2023-04-01T00:36:20.411Z,97023.06
2023-04-01T00:38:47.870Z,97020.88
2023-04-01T00:41:16.269Z,97030.81
2023-04-01T00:43:44.089Z,97022.53
2023-04-01T00:46:11.230Z,97026.94
2023-04-01T00:48:40.315Z,97031.97
2023-04-01T00:51:12.991Z,97025.25
2023-04-01T00:53:42.208Z,97023.56
2023-04-01T00:56:33.808Z,97030.81
2023-04-01T00:59:06.770Z,97026.25
2023-04-01T01:01:33.865Z,97027.94
2023-04-01T01:04:01.176Z,97027.25
2023-04-01T01:06:40.024Z,97019.16
2023-04-01T01:09:34.083Z,97013.91
2023-04-01T01:12:27.221Z,97019.00
2023-04-01T01:15:18.747Z,97017.47
2023-04-01T01:17:48.882Z,97013.09
2023-04-01T01:20:39.135Z,97012.25
2023-04-01T01:23:30.866Z,97014.13
2023-04-01T01:26:45.470Z,97013.41
2023-04-01T01:29:12.540Z,97007.19
2023-04-01T01:31:42.195Z,97006.34
2023-04-01T01:34:21.235Z,97000.25
2023-04-01T01:36:49.887Z,97012.75
2023-04-01T01:39:16.969Z,97009.22
2023-04-01T01:41:43.752Z,97005.66
2023-04-01T01:44:12.141Z,97007.66
2023-04-01T01:46:39.232Z,97008.69
2023-04-01T01:49:06.320Z,97005.31
2023-04-01T01:51:33.112Z,97012.56
2023-04-01T01:54:00.267Z,97016.97
2023-04-01T01:56:28.217Z,97017.44
2023-04-01T01:58:57.829Z,97022.69
2023-04-01T02:01:26.879Z,97018.28
2023-04-01T02:03:54.083Z,97016.78
2023-04-01T02:06:22.978Z,97018.59
2023-04-01T02:09:00.496Z,97013.56
2023-04-01T02:11:30.148Z,97015.22
2023-04-01T02:14:27.679Z,97003.78
2023-04-01T02:17:08.623Z,97011.34
2023-04-01T02:19:39.358Z,97010.31
2023-04-01T02:22:09.200Z,97007.63
2023-04-01T02:24:36.422Z,97017.59
2023-04-01T02:27:03.249Z,97020.44
2023-04-01T02:29:30.404Z,97017.22
2023-04-01T02:31:57.234Z,97012.69
2023-04-01T02:34:24.501Z,97018.22
2023-04-01T02:36:51.611Z,97024.66
2023-04-01T02:39:18.826Z,97021.78
2023-04-01T02:41:45.835Z,97026.00
2023-04-01T02:44:13.901Z,97023.63
2023-04-01T02:46:40.888Z,97024.81
2023-04-01T02:49:07.965Z,97030.72
2023-04-01T02:51:34.850Z,97032.22
2023-04-01T02:54:01.986Z,97022.28
2023-04-01T02:56:28.799Z,97033.56
2023-04-01T02:58:56.002Z,97027.34
2023-04-01T03:01:22.879Z,97031.19
2023-04-01T03:03:50.487Z,97030.38
2023-04-01T03:06:17.345Z,97029.00
2023-04-01T03:08:44.706Z,97033.91
2023-04-01T03:11:11.943Z,97027.00
2023-04-01T03:13:39.112Z,97031.34
2023-04-01T03:16:06.366Z,97033.91
2023-04-01T03:18:33.506Z,97039.09
2023-04-01T03:21:14.218Z,97031.88
2023-04-01T03:23:41.382Z,97031.72
2023-04-01T03:26:08.092Z,97029.50
2023-04-01T03:28:35.347Z,97029.00
2023-04-01T03:31:02.318Z,97024.09
2023-04-01T03:33:29.519Z,97024.94
2023-04-01T03:35:56.473Z,97032.03
2023-04-01T03:38:23.538Z,97024.09
2023-04-01T03:40:50.451Z,97022.41
2023-04-01T03:43:17.788Z,97032.19
2023-04-01T03:45:48.480Z,97026.81
2023-04-01T03:48:15.988Z,97033.50
2023-04-01T03:50:42.789Z,97032.19
2023-04-01T03:53:10.097Z,97029.66
2023-04-01T03:55:37.241Z,97032.84
2023-04-01T03:58:05.576Z,97036.03
2023-04-01T04:00:32.481Z,97031.53
2023-04-01T04:02:59.808Z,97033.66
2023-04-01T04:05:26.945Z,97028.28
2023-04-01T04:07:54.153Z,97037.22
2023-04-01T04:10:21.084Z,97035.69
2023-04-01T04:12:48.122Z,97037.88
2023-04-01T04:15:14.928Z,97034.84
2023-04-01T04:17:42.325Z,97034.84
2023-04-01T04:20:09.794Z,97023.91
2023-04-01T04:22:36.943Z,97032.31
2023-04-01T04:25:03.901Z,97032.47
2023-04-01T04:27:31.076Z,97027.75
2023-04-01T04:29:57.837Z,97022.22
2023-04-01T04:32:24.953Z,97032.84
2023-04-01T04:34:51.720Z,97033.66
2023-04-01T04:37:18.805Z,97025.94
2023-04-01T04:39:45.545Z,97025.38
2023-04-01T04:42:12.602Z,97030.09
2023-04-01T04:44:40.409Z,97021.34
2023-04-01T04:47:07.628Z,97024.03
2023-04-01T04:49:34.584Z,97023.19
2023-04-01T04:52:01.650Z,97021.34
2023-04-01T04:54:28.371Z,97016.94
2023-04-01T04:56:55.448Z,97027.06
2023-04-01T04:59:22.288Z,97030.94
2023-04-01T05:01:49.453Z,97035.66
2023-04-01T05:04:16.325Z,97027.56
2023-04-01T05:06:44.003Z,97030.59
2023-04-01T05:09:10.857Z,97030.25
2023-04-01T05:11:37.921Z,97034.97
2023-04-01T05:14:04.680Z,97039.53
2023-04-01T05:16:32.568Z,97038.50
2023-04-01T05:18:59.360Z,97038.34
2023-04-01T05:21:26.535Z,97035.66
2023-04-01T05:23:53.315Z,97033.97
2023-04-01T05:26:20.410Z,97044.25
2023-04-01T05:28:47.139Z,97039.38
2023-04-01T05:31:14.372Z,97044.41
2023-04-01T05:33:41.110Z,97040.56
2023-04-01T05:36:17.316Z,97044.25
2023-04-01T05:38:44.764Z,97051.50
2023-04-01T05:41:11.873Z,97048.66
2023-04-01T05:43:38.954Z,97043.09
2023-04-01T05:46:06.086Z,97045.78
2023-04-01T05:48:34.316Z,97047.50
2023-04-01T05:51:01.919Z,97044.81
2023-04-01T05:53:28.692Z,97044.81
2023-04-01T05:55:55.800Z,97054.41
2023-04-01T05:58:22.582Z,97051.69
2023-04-01T06:00:59.057Z,97055.22
2023-04-01T06:03:32.932Z,97054.75
2023-04-01T06:06:02.098Z,97051.72
2023-04-01T06:08:29.205Z,97054.28
2023-04-01T06:11:19.350Z,97056.81
2023-04-01T06:14:01.686Z,97063.03
2023-04-01T06:17:13.584Z,97058.31
2023-04-01T06:19:54.685Z,97057.31
2023-04-01T06:22:48.900Z,97060.53
2023-04-01T06:25:44.816Z,97064.06
2023-04-01T06:28:35.887Z,97061.88
2023-04-01T06:31:08.862Z,97059.03
2023-04-01T06:33:43.648Z,97053.13
2023-04-01T06:36:21.058Z,97062.75
2023-04-01T06:39:26.406Z,97065.59
2023-04-01T06:42:14.074Z,97066.13
2023-04-01T06:45:04.424Z,97077.41
2023-04-01T06:47:49.418Z,97071.03
2023-04-01T06:50:34.652Z,97070.69
2023-04-01T06:53:07.453Z,97073.25
2023-04-01T06:55:53.046Z,97080.50
2023-04-01T06:58:24.811Z,97075.78
2023-04-01T07:00:57.736Z,97081.53
2023-04-01T07:03:30.466Z,97081.53
2023-04-01T07:06:09.572Z,97090.28
2023-04-01T07:08:37.860Z,97092.97
2023-04-01T07:11:06.411Z,97093.00
2023-04-01T07:13:42.080Z,97087.78
2023-04-01T07:16:18.268Z,97086.59
2023-04-01T07:18:51.596Z,97096.06
2023-04-01T07:21:36.785Z,97097.06
2023-04-01T07:24:10.230Z,97093.53
2023-04-01T07:26:37.332Z,97100.25
2023-04-01T07:29:07.221Z,97104.19
2023-04-01T07:31:40.558Z,97105.34
2023-04-01T07:34:35.398Z,97109.56
2023-04-01T07:37:24.597Z,97114.44
2023-04-01T07:40:07.586Z,97114.00
2023-04-01T07:42:50.170Z,97110.28
2023-04-01T07:45:23.500Z,97112.84
2023-04-01T07:47:53.600Z,97111.63
2023-04-01T07:50:43.050Z,97114.66
2023-04-01T07:53:19.232Z,97117.22
2023-04-01T07:56:06.483Z,97111.66
2023-04-01T07:58:45.716Z,97113.34
2023-04-01T08:01:21.758Z,97122.28
2023-04-01T08:03:59.326Z,97127.19
2023-04-01T08:06:37.728Z,97122.97
2023-04-01T08:09:20.457Z,97136.81
2023-04-01T08:15:08.893Z,97131.41
2023-04-01T08:18:06.721Z,97130.25
2023-04-01T08:21:11.486Z,97131.41
2023-04-01T08:23:39.588Z,97132.97
2023-04-01T08:26:15.010Z,97126.19
2023-04-01T08:28:52.898Z,97125.03
2023-04-01T08:31:21.245Z,97129.75
2023-04-01T08:33:48.304Z,97130.59
2023-04-01T08:36:22.150Z,97132.63
2023-04-01T08:39:11.802Z,97133.13
2023-04-01T08:41:57.197Z,97132.28
2023-04-01T08:44:43.185Z,97136.19
2023-04-01T08:47:32.444Z,97137.19
2023-04-01T08:50:20.894Z,97123.34
2023-04-01T08:52:54.044Z,97129.25
2023-04-01T08:55:26.007Z,97130.28
2023-04-01T08:58:30.910Z,97138.19
2023-04-01T09:01:06.606Z,97142.94
2023-04-01T09:03:45.953Z,97148.34
2023-04-01T09:06:41.935Z,97146.84
2023-04-01T09:09:12.064Z,97146.13
2023-04-01T09:12:16.419Z,97150.53
2023-04-01T09:14:52.677Z,97145.97
2023-04-01T09:17:28.280Z,97154.94
2023-04-01T09:20:01.590Z,97146.31
2023-04-01T09:22:48.621Z,97152.22
2023-04-01T09:25:47.662Z,97147.84
2023-04-01T09:28:18.785Z,97155.09
2023-04-01T09:30:59.304Z,97149.16
2023-04-01T09:33:47.414Z,97150.03
2023-04-01T09:36:49.026Z,97153.91
2023-04-01T09:39:24.651Z,97148.66
2023-04-01T09:42:11.951Z,97144.75
2023-04-01T09:44:42.978Z,97143.41
2023-04-01T09:47:28.504Z,97150.16
2023-04-01T09:50:27.455Z,97145.63
2023-04-01T09:53:29.901Z,97148.81
2023-04-01T09:56:21.122Z,97143.06
2023-04-01T09:59:29.720Z,97146.78
2023-04-01T10:02:15.389Z,97144.44
2023-04-01T10:04:50.589Z,97138.50
2023-04-01T10:07:29.720Z,97149.66
2023-04-01T10:10:20.408Z,97144.88
2023-04-01T10:13:15.492Z,97143.34
2023-04-01T10:15:42.584Z,97135.75
2023-04-01T10:18:56.987Z,97144.97
2023-04-01T10:21:40.005Z,97140.88
2023-04-01T10:24:31.635Z,97147.09
2023-04-01T10:27:14.977Z,97143.69
2023-04-01T10:29:44.717Z,97140.00
2023-04-01T10:32:49.651Z,97141.13
2023-04-01T10:35:38.273Z,97138.25
2023-04-01T10:38:20.715Z,97149.69
2023-04-01T10:41:07.404Z,97144.72
2023-04-01T10:43:43.592Z,97145.00
2023-04-01T10:46:16.469Z,97148.19
2023-04-01T10:48:56.501Z,97152.06
2023-04-01T10:51:49.797Z,97156.44
2023-04-01T10:54:47.762Z,97156.97
2023-04-01T10:57:33.166Z,97159.59
2023-04-01T11:00:00.310Z,97157.00
2023-04-01T11:02:58.281Z,97142.09
2023-04-01T11:05:52.782Z,97160.34
2023-04-01T11:08:40.633Z,97159.97
2023-04-01T11:11:46.261Z,97155.88
2023-04-01T11:14:42.446Z,97165.13
2023-04-01T11:17:31.593Z,97163.66
2023-04-01T11:20:04.694Z,97158.69
2023-04-01T11:22:59.654Z,97156.81
2023-04-01T11:25:31.433Z,97153.75
2023-04-01T11:28:25.094Z,97156.03
2023-04-01T11:31:13.062Z,97159.88
2023-04-01T11:34:16.645Z,97158.50
2023-04-01T11:37:03.702Z,97158.03
2023-04-01T11:40:07.168Z,97160.91
2023-04-01T11:43:01.525Z,97164.41
2023-04-01T11:45:41.382Z,97159.84
2023-04-01T11:48:23.221Z,97149.91
2023-04-01T11:51:11.589Z,97158.53
2023-04-01T11:54:09.103Z,97160.03
2023-04-01T11:56:57.452Z,97160.13
2023-04-01T11:59:46.030Z,97163.88
2023-04-01T12:02:33.374Z,97159.81
2023-04-01T12:05:09.526Z,97165.13
2023-04-01T12:07:54.606Z,97168.31
2023-04-01T12:10:33.749Z,97168.97
2023-04-01T12:13:20.080Z,97166.34
2023-04-01T12:16:05.987Z,97168.69
2023-04-01T12:19:11.646Z,97168.50
2023-04-01T12:21:53.516Z,97168.59
2023-04-01T12:24:39.566Z,97170.72
2023-04-01T12:27:24.594Z,97181.03
2023-04-01T12:30:00.846Z,97169.78
2023-04-01T12:32:42.849Z,97175.88
2023-04-01T12:35:19.546Z,97168.31
2023-04-01T12:38:12.200Z,97175.31
2023-04-01T12:40:58.137Z,97176.81
2023-04-01T12:43:27.672Z,97173.06
2023-04-01T12:46:09.793Z,97179.13
2023-04-01T12:48:43.897Z,97171.84
2023-04-01T12:51:32.782Z,97168.53
2023-04-01T12:54:10.112Z,97165.63
2023-04-01T12:56:52.336Z,97169.66
2023-04-01T12:59:38.568Z,97174.28
2023-04-01T13:02:24.273Z,97178.66
2023-04-01T13:04:56.994Z,97176.31
2023-04-01T13:07:35.734Z,97181.38
2023-04-01T13:10:44.114Z,97181.75
2023-04-01T13:13:53.900Z,97178.03
2023-04-01T13:16:25.507Z,97179.72
2023-04-01T13:19:01.730Z,97181.28
2023-04-01T13:21:44.812Z,97182.44
2023-04-01T13:24:44.581Z,97181.47
2023-04-01T13:27:20.398Z,97174.75
2023-04-01T13:30:31.953Z,97178.84
2023-04-01T13:33:36.022Z,97186.25
2023-04-01T13:36:19.434Z,97185.44
2023-04-01T13:38:46.430Z,97185.44
2023-04-01T13:41:41.725Z,97183.34
2023-04-01T13:44:32.189Z,97182.53
2023-04-01T13:47:24.025Z,97185.59
2023-04-01T13:50:13.905Z,97182.44
2023-04-01T13:53:03.140Z,97187.69
2023-04-01T13:55:48.358Z,97184.88
2023-04-01T13:58:48.038Z,97188.78
2023-04-01T14:01:32.369Z,97195.94
2023-04-01T14:04:21.191Z,97194.88
2023-04-01T14:07:01.966Z,97186.91
2023-04-01T14:09:50.388Z,97186.25
2023-04-01T14:12:35.663Z,97192.75
2023-04-01T14:15:35.335Z,97200.13
2023-04-01T14:18:25.023Z,97204.16
2023-04-01T14:21:21.394Z,97197.59
2023-04-01T14:23:57.376Z,97197.13
2023-04-01T14:27:03.479Z,97196.38
2023-04-01T14:29:36.645Z,97197.03
2023-04-01T14:32:34.459Z,97197.22
2023-04-01T14:35:15.829Z,97191.78
2023-04-01T14:38:01.263Z,97201.44
2023-04-01T14:40:30.125Z,97201.25
2023-04-01T14:43:09.009Z,97218.28
2023-04-01T14:46:12.807Z,97226.06
2023-04-01T14:48:49.526Z,97238.69
2023-04-01T14:51:18.002Z,97238.69
2023-04-01T14:54:04.301Z,97240.47
2023-04-01T14:56:52.248Z,97243.38
2023-04-01T14:59:22.478Z,97236.94
2023-04-01T15:02:08.175Z,97238.78
2023-04-01T15:04:39.729Z,97234.03
2023-04-01T15:07:06.688Z,97231.13
2023-04-01T15:09:55.116Z,97225.03
2023-04-01T15:12:31.356Z,97232.97
2023-04-01T15:15:19.756Z,97234.03
2023-04-01T15:18:05.285Z,97235.41
2023-04-01T15:20:32.379Z,97235.59
2023-04-01T15:23:14.578Z,97241.22
2023-04-01T15:25:44.760Z,97242.63
2023-04-01T15:28:33.522Z,97239.28
2023-04-01T15:31:15.613Z,97239.66
2023-04-01T15:34:08.412Z,97249.84
2023-04-01T15:37:03.521Z,97248.34
2023-04-01T15:39:36.365Z,97249.56
2023-04-01T15:42:22.062Z,97256.19
2023-04-01T15:45:07.322Z,97257.22
2023-04-01T15:48:00.186Z,97263.88
2023-04-01T15:50:55.525Z,97264.06
2023-04-01T15:53:25.655Z,97261.91
2023-04-01T15:56:00.558Z,97268.84
2023-04-01T15:58:52.536Z,97266.50
2023-04-01T16:01:35.664Z,97263.97
2023-04-01T16:04:14.954Z,97270.59
2023-04-01T16:06:54.112Z,97275.28
2023-04-01T16:09:46.319Z,97269.56
2023-04-01T16:12:13.149Z,97270.41
2023-04-01T16:15:04.382Z,97267.88
2023-04-01T16:17:39.967Z,97286.88
2023-04-01T16:20:19.085Z,97271.81
2023-04-01T16:23:03.764Z,97276.41
2023-04-01T16:25:37.225Z,97284.53
2023-04-01T16:28:13.076Z,97293.88
2023-04-01T16:30:45.350Z,97295.13
2023-04-01T16:33:29.063Z,97297.63
2023-04-01T16:36:35.430Z,97299.03
2023-04-01T16:39:17.122Z,97303.75
2023-04-01T16:41:50.983Z,97310.19
2023-04-01T16:44:25.467Z,97318.69
2023-04-01T16:47:08.830Z,97318.69
2023-04-01T16:49:45.516Z,97324.50
2023-04-01T16:52:12.855Z,97322.16
2023-04-01T16:55:01.395Z,97330.47
2023-04-01T16:57:29.668Z,97329.78
2023-04-01T17:00:15.215Z,97335.44
2023-04-01T17:02:52.443Z,97344.75
2023-04-01T17:05:19.515Z,97348.47
2023-04-01T17:07:55.921Z,97344.28
2023-04-01T17:10:41.374Z,97350.06
2023-04-01T17:13:17.796Z,97355.84
2023-04-01T17:15:53.831Z,97355.19
2023-04-01T17:18:39.359Z,97361.78
2023-04-01T17:21:08.885Z,97373.88
2023-04-01T17:24:11.105Z,97378.81
2023-04-01T17:26:39.428Z,97383.75
2023-04-01T17:29:16.570Z,97394.75
2023-04-01T17:32:12.726Z,97400.72
2023-04-01T17:34:39.832Z,97410.03
2023-04-01T17:37:10.851Z,97410.41
2023-04-01T17:39:56.435Z,97414.81
2023-04-01T17:42:24.239Z,97416.22
2023-04-01T17:45:20.494Z,97408.44
2023-04-01T17:48:04.694Z,97426.91
2023-04-01T17:50:37.368Z,97425.72
2023-04-01T17:53:14.383Z,97426.94
2023-04-01T17:56:00.089Z,97425.25
2023-04-01T17:58:30.997Z,97434.75
2023-04-01T18:00:59.698Z,97423.91
2023-04-01T18:03:45.816Z,97441.00
2023-04-01T18:06:21.098Z,97434.91
2023-04-01T18:09:02.926Z,97440.69
2023-04-01T18:12:06.201Z,97437.97
2023-04-01T18:15:07.461Z,97446.44
2023-04-01T18:18:02.351Z,97453.91
2023-04-01T18:20:38.172Z,97448.50
2023-04-01T18:23:28.248Z,97447.50
2023-04-01T18:25:56.734Z,97454.41
2023-04-01T18:28:39.717Z,97448.97
2023-04-01T18:31:20.462Z,97455.44
2023-04-01T18:33:53.603Z,97451.53
2023-04-01T18:36:26.139Z,97461.69
2023-04-01T18:39:41.724Z,97458.31
2023-04-01T18:42:26.539Z,97464.59
2023-04-01T18:44:57.266Z,97469.50
2023-04-01T18:47:51.712Z,97466.97
2023-04-01T18:50:38.930Z,97476.13
2023-04-01T18:53:43.893Z,97474.75
2023-04-01T18:56:12.302Z,97470.38
2023-04-01T18:58:51.714Z,97472.22
2023-04-01T19:01:41.326Z,97474.59
2023-04-01T19:04:31.853Z,97474.59
2023-04-01T19:07:01.526Z,97469.00
2023-04-01T19:09:29.328Z,97486.78
2023-04-01T19:12:08.794Z,97489.31
2023-04-01T19:14:47.787Z,97486.78
2023-04-01T19:18:08.807Z,97488.66
2023-04-01T19:20:38.505Z,97492.34
2023-04-01T19:23:27.344Z,97491.69
2023-04-01T19:25:59.634Z,97497.09
2023-04-01T19:28:41.522Z,97497.09
2023-04-01T19:31:41.628Z,97502.00
2023-04-01T19:34:39.899Z,97499.47
2023-04-01T19:37:12.934Z,97502.34
2023-04-01T19:40:17.787Z,97509.06
2023-04-01T19:42:50.438Z,97510.94
2023-04-01T19:45:31.447Z,97512.09
2023-04-01T19:48:39.458Z,97518.56
2023-04-01T19:51:06.784Z,97524.28
2023-04-01T19:54:00.736Z,97524.09
2023-04-01T19:56:38.800Z,97534.94
2023-04-01T19:59:20.080Z,97539.66
2023-04-01T20:01:59.278Z,97535.41
2023-04-01T20:04:57.299Z,97540.00
2023-04-01T20:07:38.872Z,97539.31
2023-04-01T20:10:15.953Z,97539.47
2023-04-01T20:13:20.443Z,97549.44
2023-04-01T20:16:09.049Z,97545.06
2023-04-01T20:18:48.330Z,97545.53
2023-04-01T20:21:30.307Z,97550.94
2023-04-01T20:24:02.921Z,97556.34
2023-04-01T20:26:37.700Z,97552.13
2023-04-01T20:29:23.162Z,97554.13
2023-04-01T20:32:05.169Z,97551.59
2023-04-01T20:34:52.161Z,97554.47
2023-04-01T20:37:45.022Z,97554.66
2023-04-01T20:40:42.094Z,97560.22
2023-04-01T20:43:18.676Z,97553.09
2023-04-01T20:46:00.753Z,97563.25
2023-04-01T20:48:55.198Z,97556.13
2023-04-01T20:51:44.495Z,97563.41
2023-04-01T20:54:49.111Z,97559.00
2023-04-01T20:57:33.303Z,97564.56
2023-04-01T21:00:35.530Z,97561.34
2023-04-01T21:03:13.506Z,97570.47
2023-04-01T21:05:49.514Z,97575.03
2023-04-01T21:08:53.059Z,97571.47
2023-04-01T21:11:19.885Z,97572.59
2023-04-01T21:13:53.135Z,97569.06
2023-04-01T21:16:41.856Z,97577.50
2023-04-01T21:19:27.888Z,97580.19
2023-04-01T21:22:14.853Z,97582.91
2023-04-01T21:25:19.343Z,97585.75
2023-04-01T21:27:58.951Z,97594.03
2023-04-01T21:30:29.206Z,97593.19
2023-04-01T21:33:45.784Z,97585.41
2023-04-01T21:36:20.574Z,97585.72
2023-04-01T21:39:44.773Z,97582.03
2023-04-01T21:42:14.470Z,97590.97
2023-04-01T21:44:47.369Z,97593.66
2023-04-01T21:47:29.785Z,97590.28
2023-04-01T21:50:21.244Z,97595.00
2023-04-01T21:53:21.078Z,97596.16
2023-04-01T21:56:23.562Z,97593.63
2023-04-01T21:59:09.000Z,97599.03
2023-04-01T22:01:49.625Z,97607.31
2023-04-01T22:04:31.836Z,97604.78
2023-04-01T22:07:03.465Z,97610.19
2023-04-01T22:09:58.772Z,97607.63
2023-04-01T22:12:35.002Z,97614.03
2023-04-01T22:15:05.271Z,97609.81
2023-04-01T22:17:47.691Z,97614.03
2023-04-01T22:20:20.498Z,97618.25
2023-04-01T22:23:34.110Z,97616.22
2023-04-01T22:26:35.384Z,97625.47
2023-04-01T22:29:08.989Z,97622.78
2023-04-01T22:31:52.822Z,97621.09
2023-04-01T22:34:44.397Z,97621.09
2023-04-01T22:37:38.530Z,97623.13
2023-04-01T22:40:43.489Z,97619.53
2023-04-01T22:43:16.511Z,97620.03
2023-04-01T22:45:58.129Z,97623.44
2023-04-01T22:48:48.846Z,97626.28
2023-04-01T22:52:09.578Z,97622.91
2023-04-01T22:54:45.002Z,97627.44
2023-04-01T22:57:14.770Z,97629.31
2023-04-01T22:59:43.599Z,97629.47
2023-04-01T23:02:23.109Z,97626.06
2023-04-01T23:04:54.629Z,97631.47
2023-04-01T23:07:50.668Z,97633.50
2023-04-01T23:10:26.235Z,97633.66
2023-04-01T23:12:53.811Z,97642.44
2023-04-01T23:15:20.935Z,97640.03
2023-04-01T23:18:23.544Z,97635.31
2023-04-01T23:20:56.705Z,97641.03
2023-04-01T23:23:30.846Z,97637.50
2023-04-01T23:26:04.096Z,97638.69
2023-04-01T23:28:33.908Z,97642.38
2023-04-01T23:31:01.184Z,97641.53
2023-04-01T23:33:31.444Z,97636.97
2023-04-01T23:36:12.753Z,97647.78
2023-04-01T23:38:42.751Z,97655.03
2023-04-01T23:41:30.896Z,97655.03
2023-04-01T23:44:06.661Z,97655.34
2023-04-01T23:46:34.743Z,97656.34
2023-04-01T23:49:02.292Z,97658.88
2023-04-01T23:51:37.386Z,97658.19
2023-04-01T23:54:25.577Z,97668.00
2023-04-01T23:56:53.431Z,97655.50
2023-04-01T23:59:24.415Z,97660.06
